createdAt,value
2019-02-02T00:01:10.732Z,0.10
2019-02-02T00:03:38.026Z,0.20
2019-02-02T00:06:05.272Z,0.10
2019-02-02T00:08:32.552Z,0.10
2019-02-02T00:10:59.792Z,0.10
2019-02-02T00:13:27.100Z,0.00
2019-02-02T00:15:54.330Z,0.10
2019-02-02T00:18:22.907Z,0.10
2019-02-02T00:20:50.040Z,0.20
2019-02-02T00:23:17.386Z,0.20
2019-02-02T00:25:44.881Z,0.20
2019-02-02T00:28:12.138Z,0.30
2019-02-02T00:30:39.374Z,0.20
2019-02-02T00:33:06.655Z,0.20
2019-02-02T00:35:33.849Z,0.30
2019-02-02T00:38:01.102Z,0.30
2019-02-02T00:40:28.392Z,0.30
2019-02-02T00:42:55.628Z,0.30
2019-02-02T00:45:22.872Z,0.40
2019-02-02T00:47:50.448Z,0.40
2019-02-02T00:50:17.972Z,0.40
2019-02-02T00:52:45.210Z,0.40
2019-02-02T00:55:12.786Z,0.50
2019-02-02T00:57:40.157Z,0.40
2019-02-02T01:00:09.764Z,0.50
2019-02-02T01:02:37.301Z,0.50
2019-02-02T01:05:05.417Z,0.60
2019-02-02T01:07:32.707Z,0.70
2019-02-02T01:09:59.854Z,0.90
2019-02-02T01:12:27.127Z,1.00
2019-02-02T01:14:54.672Z,1.00
2019-02-02T01:17:21.928Z,1.00
2019-02-02T01:19:49.105Z,0.90
2019-02-02T01:22:16.398Z,0.80
2019-02-02T01:24:43.846Z,0.90
2019-02-02T01:27:11.104Z,0.90
2019-02-02T01:29:38.331Z,1.00
2019-02-02T01:32:05.605Z,1.00
2019-02-02T01:34:32.867Z,1.10
2019-02-02T01:37:00.100Z,1.20
2019-02-02T01:39:27.374Z,1.10
2019-02-02T01:41:54.632Z,1.00
2019-02-02T01:44:21.859Z,1.00
2019-02-02T01:46:49.120Z,0.90
2019-02-02T01:49:16.358Z,1.00
2019-02-02T01:51:43.613Z,1.00
2019-02-02T01:54:10.869Z,1.20
2019-02-02T01:56:38.153Z,1.20
2019-02-02T01:59:05.399Z,1.20
2019-02-02T02:01:32.648Z,1.10
2019-02-02T02:03:59.903Z,1.20
2019-02-02T02:06:27.177Z,1.10
2019-02-02T02:08:54.419Z,1.10
2019-02-02T02:11:21.594Z,0.90
2019-02-02T02:13:48.831Z,0.70
2019-02-02T02:16:15.967Z,0.60
2019-02-02T02:18:43.148Z,0.60
2019-02-02T02:21:10.375Z,0.60
2019-02-02T02:23:37.712Z,0.60
2019-02-02T02:26:04.922Z,0.60
2019-02-02T02:28:32.092Z,0.70
2019-02-02T02:30:59.242Z,0.70
2019-02-02T02:33:26.478Z,0.80
2019-02-02T02:35:53.766Z,0.70
2019-02-02T02:38:21.015Z,0.60
2019-02-02T02:40:48.293Z,0.50
2019-02-02T02:43:15.524Z,0.50
2019-02-02T02:45:42.821Z,0.60
2019-02-02T02:48:10.051Z,0.60
2019-02-02T02:50:37.307Z,0.70
2019-02-02T02:53:04.475Z,0.80
2019-02-02T02:55:31.715Z,0.90
2019-02-02T02:57:58.968Z,0.80
2019-02-02T03:00:26.426Z,0.60
2019-02-02T03:02:53.674Z,0.50
2019-02-02T03:05:21.316Z,0.50
2019-02-02T03:07:49.526Z,0.60
2019-02-02T03:10:17.605Z,0.70
2019-02-02T03:12:44.859Z,0.70
2019-02-02T03:15:12.903Z,0.80
2019-02-02T03:17:40.267Z,0.70
2019-02-02T03:20:08.129Z,0.80
2019-02-02T03:22:35.419Z,0.90
2019-02-02T03:25:02.974Z,0.80
2019-02-02T03:27:30.213Z,0.70
2019-02-02T03:29:57.461Z,0.80
2019-02-02T03:32:24.724Z,0.70
2019-02-02T03:34:51.885Z,0.80
2019-02-02T03:37:19.147Z,0.90
2019-02-02T03:39:46.592Z,0.90
2019-02-02T03:42:13.949Z,1.00
2019-02-02T03:44:41.193Z,0.90
2019-02-02T03:47:08.374Z,1.00
2019-02-02T03:49:35.613Z,0.90
2019-02-02T03:52:02.827Z,1.10
2019-02-02T03:54:30.067Z,1.20
2019-02-02T03:56:57.312Z,1.40
2019-02-02T03:59:24.586Z,1.50
2019-02-02T04:01:51.967Z,1.50
2019-02-02T04:04:19.326Z,1.50
2019-02-02T04:06:46.582Z,1.40
2019-02-02T04:09:13.863Z,1.30
2019-02-02T04:11:43.379Z,1.10
2019-02-02T04:14:10.170Z,1.00
2019-02-02T04:16:37.420Z,0.90
2019-02-02T04:19:04.978Z,1.10
2019-02-02T04:21:32.232Z,1.20
2019-02-02T04:23:59.546Z,1.10
2019-02-02T04:26:26.907Z,0.90
2019-02-02T04:28:54.152Z,0.90
2019-02-02T04:31:21.398Z,0.90
2019-02-02T04:33:48.669Z,0.90
2019-02-02T04:36:15.932Z,0.90
2019-02-02T04:38:43.169Z,1.10
2019-02-02T04:41:10.405Z,1.10
2019-02-02T04:43:37.673Z,1.10
2019-02-02T04:46:04.925Z,1.00
2019-02-02T04:48:32.608Z,1.00
2019-02-02T04:50:59.845Z,0.90
2019-02-02T04:53:27.118Z,0.90
2019-02-02T04:55:54.357Z,1.00
2019-02-02T04:58:21.483Z,1.10
2019-02-02T05:00:48.745Z,1.20
2019-02-02T05:03:16.019Z,1.20
2019-02-02T05:05:43.171Z,1.10
2019-02-02T05:08:10.444Z,1.00
2019-02-02T05:10:37.706Z,0.90
2019-02-02T05:13:04.832Z,0.90
2019-02-02T05:15:35.142Z,0.90
2019-02-02T05:18:02.366Z,1.00
2019-02-02T05:20:29.624Z,1.10
2019-02-02T05:22:56.791Z,1.10
2019-02-02T05:25:24.042Z,1.10
2019-02-02T05:27:51.328Z,1.10
2019-02-02T05:30:23.850Z,1.00
2019-02-02T05:32:51.066Z,0.90
2019-02-02T05:35:18.170Z,1.00
2019-02-02T05:37:45.325Z,1.10
2019-02-02T05:40:13.861Z,1.30
2019-02-02T05:42:41.117Z,1.40
2019-02-02T05:45:09.937Z,1.30
2019-02-02T05:47:37.110Z,1.40
2019-02-02T05:50:05.684Z,1.30
2019-02-02T05:52:32.959Z,1.30
2019-02-02T05:55:00.338Z,1.20
2019-02-02T05:57:27.681Z,1.20
2019-02-02T05:59:54.974Z,1.20
2019-02-02T06:02:22.295Z,1.30
2019-02-02T06:04:49.513Z,1.20
2019-02-02T06:07:16.768Z,1.20
2019-02-02T06:09:43.968Z,1.10
2019-02-02T06:12:11.254Z,1.10
2019-02-02T06:14:38.682Z,1.10
2019-02-02T06:17:05.855Z,1.10
2019-02-02T06:19:33.020Z,1.20
2019-02-02T06:22:00.321Z,1.20
2019-02-02T06:24:27.453Z,1.20
2019-02-02T06:26:54.698Z,1.20
2019-02-02T06:29:21.946Z,1.30
2019-02-02T06:31:49.182Z,1.40
2019-02-02T06:34:16.447Z,1.40
2019-02-02T06:36:43.606Z,1.40
2019-02-02T06:39:10.916Z,1.50
2019-02-02T06:41:38.143Z,1.50
2019-02-02T06:44:05.641Z,1.50
2019-02-02T06:46:43.019Z,1.60
2019-02-02T06:49:01.927Z,1.60
2019-02-02T06:51:29.158Z,1.60
2019-02-02T06:53:56.418Z,1.70
2019-02-02T06:56:23.647Z,1.80
2019-02-02T06:58:50.906Z,1.90
2019-02-02T07:01:18.193Z,1.90
2019-02-02T07:03:45.426Z,1.90
2019-02-02T07:06:12.732Z,2.00
2019-02-02T07:08:40.008Z,1.90
2019-02-02T07:11:07.258Z,1.90
2019-02-02T07:13:36.098Z,2.00
2019-02-02T07:16:03.605Z,1.90
2019-02-02T07:18:30.851Z,1.90
2019-02-02T07:20:58.104Z,1.90
2019-02-02T07:23:25.381Z,2.10
2019-02-02T07:25:52.601Z,2.00
2019-02-02T07:28:19.768Z,2.10
2019-02-02T07:30:47.010Z,2.10
2019-02-02T07:33:14.276Z,2.10
2019-02-02T07:35:41.507Z,2.10
2019-02-02T07:38:08.761Z,2.20
2019-02-02T07:40:36.062Z,2.20
2019-02-02T07:43:03.521Z,2.20
2019-02-02T07:45:30.930Z,2.30
2019-02-02T07:47:58.112Z,2.20
2019-02-02T07:50:25.277Z,2.30
2019-02-02T07:52:52.574Z,2.30
2019-02-02T07:55:19.824Z,2.20
2019-02-02T07:57:47.088Z,2.40
2019-02-02T08:00:17.132Z,2.50
2019-02-02T08:02:44.258Z,2.60
2019-02-02T08:05:11.515Z,2.70
2019-02-02T08:07:38.757Z,2.60
2019-02-02T08:10:07.833Z,2.40
2019-02-02T08:12:35.071Z,2.40
2019-02-02T08:15:02.528Z,2.30
2019-02-02T08:17:32.327Z,2.30
2019-02-02T08:19:59.053Z,2.30
2019-02-02T08:22:26.194Z,2.30
2019-02-02T08:24:53.465Z,2.30
2019-02-02T08:27:20.717Z,2.30
2019-02-02T08:29:47.973Z,2.30
2019-02-02T08:32:15.211Z,2.40
2019-02-02T08:34:42.374Z,2.40
2019-02-02T08:37:09.625Z,2.40
2019-02-02T08:39:36.857Z,2.40
2019-02-02T08:42:04.137Z,2.50
2019-02-02T08:44:31.376Z,2.60
2019-02-02T08:46:58.685Z,2.60
2019-02-02T08:49:25.858Z,2.60
2019-02-02T08:51:53.111Z,2.80
2019-02-02T08:54:20.321Z,3.00
2019-02-02T08:56:47.522Z,3.10
2019-02-02T08:59:14.750Z,3.10
2019-02-02T09:01:42.865Z,3.10
2019-02-02T09:04:10.127Z,3.00
2019-02-02T09:06:38.995Z,2.90
2019-02-02T09:09:08.134Z,2.90
2019-02-02T09:11:35.394Z,2.90
2019-02-02T09:14:02.702Z,2.90
2019-02-02T09:16:29.864Z,3.00
2019-02-02T09:18:57.097Z,3.10
2019-02-02T09:21:24.350Z,3.20
2019-02-02T09:23:51.602Z,3.20
2019-02-02T09:26:18.887Z,3.10
2019-02-02T09:28:46.145Z,3.20
2019-02-02T09:31:15.874Z,3.20
2019-02-02T09:33:42.602Z,3.20
2019-02-02T09:36:09.979Z,3.10
2019-02-02T09:38:37.275Z,3.10
2019-02-02T09:41:04.533Z,3.10
2019-02-02T09:43:31.790Z,3.10
2019-02-02T09:45:58.962Z,3.20
2019-02-02T09:48:26.255Z,3.30
2019-02-02T09:50:53.511Z,3.40
2019-02-02T09:53:20.750Z,3.40
2019-02-02T09:55:48.115Z,3.40
2019-02-02T09:58:15.491Z,3.40
2019-02-02T10:00:42.743Z,3.40
2019-02-02T10:03:10.035Z,3.40
2019-02-02T10:05:37.176Z,3.50
2019-02-02T10:08:04.475Z,3.60
2019-02-02T10:10:32.860Z,3.60
2019-02-02T10:13:00.222Z,3.50
2019-02-02T10:15:27.470Z,3.60
2019-02-02T10:17:54.644Z,3.70
2019-02-02T10:20:23.544Z,3.90
2019-02-02T10:22:50.915Z,4.00
2019-02-02T10:25:23.185Z,3.90
2019-02-02T10:27:50.450Z,3.90
2019-02-02T10:30:22.740Z,4.00
2019-02-02T10:32:49.618Z,4.10
2019-02-02T10:35:16.748Z,4.20
2019-02-02T10:37:43.882Z,4.30
2019-02-02T10:40:11.467Z,4.30
2019-02-02T10:42:38.720Z,4.60
2019-02-02T10:45:06.982Z,4.80
2019-02-02T10:47:34.235Z,4.80
2019-02-02T10:50:01.495Z,4.80
2019-02-02T10:52:28.877Z,4.70
2019-02-02T10:54:56.174Z,4.60
2019-02-02T10:57:23.469Z,4.60
2019-02-02T10:59:50.804Z,4.50
2019-02-02T11:02:18.169Z,4.40
2019-02-02T11:04:45.471Z,4.50
2019-02-02T11:07:12.927Z,4.60
2019-02-02T11:09:40.298Z,4.70
2019-02-02T11:12:07.433Z,4.70
2019-02-02T11:14:34.736Z,4.60
2019-02-02T11:17:02.120Z,4.60
2019-02-02T11:19:29.437Z,4.50
2019-02-02T11:21:56.836Z,4.40
2019-02-02T11:24:24.129Z,4.40
2019-02-02T11:26:51.403Z,4.50
2019-02-02T11:29:18.699Z,4.50
2019-02-02T11:31:45.889Z,4.50
2019-02-02T11:34:13.187Z,4.60
2019-02-02T11:36:40.414Z,4.60
2019-02-02T11:39:08.482Z,4.60
2019-02-02T11:41:35.759Z,4.70
2019-02-02T11:44:03.146Z,4.70
2019-02-02T11:46:30.409Z,4.80
2019-02-02T11:48:57.685Z,4.90
2019-02-02T11:51:24.914Z,4.80
2019-02-02T11:53:52.235Z,4.70
2019-02-02T11:56:19.572Z,4.80
2019-02-02T11:58:46.865Z,4.80
2019-02-02T12:01:14.105Z,4.80
2019-02-02T12:03:41.320Z,4.90
2019-02-02T12:06:08.592Z,5.10
2019-02-02T12:08:35.892Z,5.00
2019-02-02T12:11:03.317Z,5.10
2019-02-02T12:13:30.583Z,5.10
2019-02-02T12:15:57.811Z,5.00
2019-02-02T12:18:25.013Z,5.00
2019-02-02T12:20:52.611Z,4.90
2019-02-02T12:23:19.935Z,4.90
2019-02-02T12:25:47.238Z,5.00
2019-02-02T12:28:14.476Z,5.20
2019-02-02T12:30:41.770Z,5.20
2019-02-02T12:33:08.936Z,5.20
2019-02-02T12:35:36.218Z,5.30
2019-02-02T12:38:03.674Z,5.50
2019-02-02T12:40:31.244Z,5.40
2019-02-02T12:42:58.594Z,5.50
2019-02-02T12:45:31.647Z,5.40
2019-02-02T12:47:58.980Z,5.50
2019-02-02T12:50:26.348Z,5.60
2019-02-02T12:52:53.662Z,6.00
2019-02-02T12:55:20.937Z,6.40
2019-02-02T12:57:48.248Z,6.40
2019-02-02T13:00:16.722Z,6.50
2019-02-02T13:02:44.127Z,6.40
2019-02-02T13:05:12.113Z,6.40
2019-02-02T13:07:39.424Z,6.30
2019-02-02T13:10:09.274Z,6.10
2019-02-02T13:12:36.695Z,6.00
2019-02-02T13:15:05.692Z,5.90
2019-02-02T13:17:33.251Z,5.70
2019-02-02T13:20:00.623Z,5.70
2019-02-02T13:22:27.930Z,5.40
2019-02-02T13:24:55.316Z,5.30
2019-02-02T13:27:22.595Z,5.40
2019-02-02T13:29:52.100Z,5.50
2019-02-02T13:32:19.204Z,5.40
2019-02-02T13:34:46.696Z,5.50
2019-02-02T13:37:14.198Z,5.50
2019-02-02T13:39:41.547Z,5.40
2019-02-02T13:42:08.938Z,5.50
2019-02-02T13:44:36.447Z,5.40
2019-02-02T13:47:03.877Z,5.40
2019-02-02T13:49:31.252Z,5.50
2019-02-02T13:51:58.648Z,5.40
2019-02-02T13:54:26.052Z,5.40
2019-02-02T13:56:53.344Z,5.50
2019-02-02T13:59:20.638Z,5.60
2019-02-02T14:01:47.828Z,5.60
2019-02-02T14:04:15.121Z,5.60
2019-02-02T14:06:42.459Z,5.60
2019-02-02T14:09:09.779Z,5.70
2019-02-02T14:11:37.140Z,5.70
2019-02-02T14:14:04.464Z,5.60
2019-02-02T14:16:31.759Z,5.70
2019-02-02T14:18:59.061Z,5.70
2019-02-02T14:21:26.436Z,5.60
2019-02-02T14:23:53.780Z,5.70
2019-02-02T14:26:21.125Z,5.70
2019-02-02T14:28:48.474Z,5.70
2019-02-02T14:31:15.894Z,5.90
2019-02-02T14:33:43.190Z,6.10
2019-02-02T14:36:10.610Z,5.90
2019-02-02T14:38:37.977Z,5.90
2019-02-02T14:41:05.226Z,5.80
2019-02-02T14:43:32.519Z,5.80
2019-02-02T14:45:59.779Z,5.90
2019-02-02T14:48:26.956Z,6.00
2019-02-02T14:50:54.264Z,6.10
2019-02-02T14:53:21.484Z,6.30
2019-02-02T14:55:48.780Z,6.40
2019-02-02T14:58:16.192Z,6.40
2019-02-02T15:00:43.404Z,6.30
2019-02-02T15:03:10.725Z,6.10
2019-02-02T15:05:43.193Z,5.90
2019-02-02T15:08:07.245Z,5.80
2019-02-02T15:10:34.488Z,5.80
2019-02-02T15:13:01.744Z,5.80
2019-02-02T15:15:29.027Z,5.90
2019-02-02T15:17:56.354Z,5.80
2019-02-02T15:20:28.877Z,5.70
2019-02-02T15:22:56.178Z,5.70
2019-02-02T15:25:23.414Z,5.50
2019-02-02T15:27:50.701Z,5.40
2019-02-02T15:30:18.522Z,5.40
2019-02-02T15:32:45.827Z,5.50
2019-02-02T15:35:14.232Z,5.50
2019-02-02T15:37:41.636Z,5.40
2019-02-02T15:40:09.895Z,5.40
2019-02-02T15:42:37.156Z,5.30
2019-02-02T15:45:05.517Z,5.20
2019-02-02T15:47:34.309Z,4.90
2019-02-02T15:50:01.727Z,4.60
2019-02-02T15:52:28.989Z,4.50
2019-02-02T15:54:56.259Z,4.30
2019-02-02T15:57:23.505Z,4.20
2019-02-02T15:59:50.745Z,4.10
2019-02-02T16:02:18.031Z,4.00
2019-02-02T16:04:45.275Z,3.90
2019-02-02T16:07:12.529Z,3.70
2019-02-02T16:09:39.674Z,3.60
2019-02-02T16:12:06.939Z,3.50
2019-02-02T16:14:34.242Z,3.50
2019-02-02T16:17:01.423Z,3.40
2019-02-02T16:19:28.707Z,3.40
2019-02-02T16:21:55.976Z,3.30
2019-02-02T16:24:23.231Z,3.20
2019-02-02T16:26:50.511Z,3.20
2019-02-02T16:29:17.779Z,3.20
2019-02-02T16:31:45.152Z,3.10
2019-02-02T16:34:12.431Z,3.10
2019-02-02T16:36:39.785Z,3.00
2019-02-02T16:39:07.603Z,3.00
2019-02-02T16:41:34.894Z,2.90
2019-02-02T16:44:02.144Z,2.90
2019-02-02T16:46:29.435Z,2.90
2019-02-02T16:48:56.635Z,3.20
2019-02-02T16:51:23.898Z,3.20
2019-02-02T16:53:51.134Z,3.20
2019-02-02T16:56:18.514Z,3.20
2019-02-02T16:58:45.804Z,3.40
2019-02-02T17:01:13.070Z,3.20
2019-02-02T17:03:40.438Z,3.10
2019-02-02T17:06:07.708Z,3.10
2019-02-02T17:08:35.085Z,3.10
2019-02-02T17:11:02.482Z,3.20
2019-02-02T17:13:29.678Z,3.10
2019-02-02T17:15:56.931Z,3.10
2019-02-02T17:18:24.174Z,3.20
2019-02-02T17:20:51.533Z,3.30
2019-02-02T17:23:18.671Z,3.20
2019-02-02T17:25:45.840Z,3.20
2019-02-02T17:28:13.115Z,3.20
2019-02-02T17:30:40.510Z,3.30
2019-02-02T17:33:10.201Z,3.30
2019-02-02T17:35:37.485Z,3.40
2019-02-02T17:38:04.791Z,3.50
2019-02-02T17:40:32.013Z,3.50
2019-02-02T17:42:59.374Z,3.60
2019-02-02T17:45:26.723Z,3.70
2019-02-02T17:47:54.047Z,3.70
2019-02-02T17:50:22.286Z,3.70
2019-02-02T17:52:49.537Z,3.70
2019-02-02T17:55:16.876Z,3.70
2019-02-02T17:57:44.191Z,3.60
2019-02-02T18:00:22.077Z,3.60
2019-02-02T18:02:49.334Z,3.70
2019-02-02T18:05:16.507Z,3.80
2019-02-02T18:07:43.804Z,3.80
2019-02-02T18:10:12.174Z,3.80
2019-02-02T18:12:39.456Z,3.70
2019-02-02T18:15:08.146Z,3.70
2019-02-02T18:17:36.908Z,3.70
2019-02-02T18:20:06.267Z,3.70
2019-02-02T18:22:33.534Z,3.60
2019-02-02T18:25:00.841Z,3.50
2019-02-02T18:27:28.164Z,3.40
2019-02-02T18:29:55.434Z,3.40
2019-02-02T18:32:22.581Z,3.40
2019-02-02T18:34:51.239Z,3.40
2019-02-02T18:37:19.047Z,3.40
2019-02-02T18:39:46.312Z,3.30
2019-02-02T18:42:13.699Z,3.20
2019-02-02T18:44:40.945Z,3.20
2019-02-02T18:47:08.241Z,3.30
2019-02-02T18:49:35.613Z,3.20
2019-02-02T18:52:06.034Z,3.10
2019-02-02T18:54:32.331Z,3.30
2019-02-02T18:56:59.638Z,3.30
2019-02-02T18:59:26.954Z,3.40
2019-02-02T19:01:54.251Z,3.50
2019-02-02T19:04:21.571Z,3.60
2019-02-02T19:06:48.827Z,3.60
2019-02-02T19:09:16.133Z,3.60
2019-02-02T19:11:43.414Z,3.60
2019-02-02T19:14:10.653Z,3.60
2019-02-02T19:16:38.082Z,3.50
2019-02-02T19:19:05.426Z,3.50
2019-02-02T19:21:32.696Z,3.30
2019-02-02T19:23:59.840Z,3.30
2019-02-02T19:26:27.352Z,3.10
2019-02-02T19:28:54.735Z,3.10
2019-02-02T19:31:22.006Z,3.00
2019-02-02T19:33:49.166Z,3.10
2019-02-02T19:36:16.478Z,3.10
2019-02-02T19:38:43.770Z,3.10
2019-02-02T19:41:11.045Z,3.20
2019-02-02T19:43:38.323Z,3.30
2019-02-02T19:46:05.576Z,3.40
2019-02-02T19:48:32.835Z,3.40
2019-02-02T19:51:00.091Z,3.20
2019-02-02T19:53:27.435Z,3.40
2019-02-02T19:55:54.611Z,3.30
2019-02-02T19:58:21.811Z,3.20
2019-02-02T20:00:49.099Z,3.10
2019-02-02T20:03:16.411Z,3.10
2019-02-02T20:05:43.683Z,3.10
2019-02-02T20:08:10.962Z,3.10
2019-02-02T20:10:38.275Z,3.10
2019-02-02T20:13:05.436Z,3.10
2019-02-02T20:15:32.759Z,3.10
2019-02-02T20:18:09.653Z,3.10
2019-02-02T20:20:29.164Z,3.10
2019-02-02T20:22:56.607Z,3.00
2019-02-02T20:25:24.135Z,3.00
2019-02-02T20:27:51.575Z,2.90
2019-02-02T20:30:26.167Z,2.90
2019-02-02T20:32:53.463Z,2.80
2019-02-02T20:35:20.799Z,2.70
2019-02-02T20:37:48.098Z,2.70
2019-02-02T20:40:17.368Z,2.70
2019-02-02T20:42:44.530Z,2.60
2019-02-02T20:45:14.364Z,2.60
2019-02-02T20:47:41.613Z,2.60
2019-02-02T20:50:11.852Z,2.60
2019-02-02T20:52:47.166Z,2.60
2019-02-02T20:55:10.663Z,2.60
2019-02-02T20:57:37.919Z,2.60
2019-02-02T21:00:08.747Z,2.50
2019-02-02T21:02:36.065Z,2.50
2019-02-02T21:05:03.648Z,2.40
2019-02-02T21:07:30.848Z,2.50
2019-02-02T21:09:58.181Z,2.50
2019-02-02T21:12:25.469Z,2.40
2019-02-02T21:14:52.936Z,2.40
2019-02-02T21:17:20.287Z,2.40
2019-02-02T21:19:47.620Z,2.40
2019-02-02T21:22:14.935Z,2.30
2019-02-02T21:24:42.191Z,2.30
2019-02-02T21:27:09.587Z,2.30
2019-02-02T21:29:37.339Z,2.40
2019-02-02T21:32:04.693Z,2.40
2019-02-02T21:34:31.830Z,2.40
2019-02-02T21:36:59.129Z,2.40
2019-02-02T21:39:26.365Z,2.30
2019-02-02T21:41:53.701Z,2.20
2019-02-02T21:44:21.063Z,2.20
2019-02-02T21:46:48.306Z,2.20
2019-02-02T21:49:15.565Z,2.20
2019-02-02T21:51:42.821Z,2.20
2019-02-02T21:54:10.008Z,2.20
2019-02-02T21:56:37.351Z,2.20
2019-02-02T21:59:04.633Z,2.10
2019-02-02T22:01:32.186Z,2.10
2019-02-02T22:03:59.458Z,2.20
2019-02-02T22:06:26.734Z,2.20
2019-02-02T22:08:53.996Z,2.10
2019-02-02T22:11:21.347Z,2.10
2019-02-02T22:13:48.628Z,2.10
2019-02-02T22:16:15.892Z,2.20
2019-02-02T22:18:43.282Z,2.20
2019-02-02T22:21:10.951Z,2.20
2019-02-02T22:23:38.309Z,2.20
2019-02-02T22:26:05.594Z,2.30
2019-02-02T22:28:32.957Z,2.20
2019-02-02T22:31:00.257Z,2.30
2019-02-02T22:33:27.501Z,2.20
2019-02-02T22:35:54.754Z,2.10
2019-02-02T22:38:22.180Z,2.10
2019-02-02T22:40:49.471Z,2.20
2019-02-02T22:43:16.824Z,2.20
2019-02-02T22:45:44.089Z,2.20
2019-02-02T22:48:11.765Z,2.10
2019-02-02T22:50:39.005Z,2.00
2019-02-02T22:53:06.479Z,2.00
2019-02-02T22:55:33.705Z,2.00
2019-02-02T22:58:00.991Z,2.00
2019-02-02T23:01:01.799Z,2.10
2019-02-02T23:04:06.744Z,2.20
2019-02-02T23:07:21.578Z,2.40
2019-02-02T23:10:41.798Z,2.40
2019-02-02T23:13:35.037Z,2.30
2019-02-02T23:16:28.164Z,2.20
2019-02-02T23:18:56.098Z,2.20
2019-02-02T23:21:23.983Z,2.10
2019-02-02T23:23:51.467Z,2.00
2019-02-02T23:26:18.735Z,2.00
2019-02-02T23:28:46.095Z,2.00
2019-02-02T23:31:13.676Z,2.00
2019-02-02T23:33:41.147Z,2.00
2019-02-02T23:36:08.413Z,2.00
2019-02-02T23:38:35.885Z,2.00
2019-02-02T23:41:03.184Z,2.00
2019-02-02T23:43:30.427Z,2.00
2019-02-02T23:45:57.695Z,1.90
2019-02-02T23:48:25.503Z,2.00
2019-02-02T23:50:52.755Z,2.00
2019-02-02T23:53:20.103Z,2.00
2019-02-02T23:55:47.389Z,1.90
2019-02-02T23:58:14.749Z,1.90
